Time;durP1;ratioP1;P1;durP2;ratioP2;P2;SDS_P1;SDS_P2;PMS_P1;PMS_P2;Temp;Humidity;BMP_temperature;BMP_pressure;BME280_temperature;BME280_humidity;BME280_pressure;Samples;Min_cycle;Max_cycle;Signal;HPM_P1;HPM_P2
2022/05/13 00:00:32;;;;;;;4.82;1.40;;;9.50;99.90;;;;;;4932214;29;20048;-77
2022/05/13 00:03:00;;;;;;;4.72;0.90;;;9.50;99.90;;;;;;4919587;29;20104;-78
2022/05/13 00:05:27;;;;;;;2.78;1.10;;;9.50;99.90;;;;;;4923360;29;20054;-77
2022/05/13 00:07:54;;;;;;;4.43;1.48;;;9.50;99.90;;;;;;4931943;29;20086;-77
2022/05/13 00:10:24;;;;;;;2.38;1.45;;;9.50;99.90;;;;;;4930947;29;20052;-77
2022/05/13 00:12:53;;;;;;;3.72;1.02;;;9.50;99.90;;;;;;4932383;29;20104;-78
2022/05/13 00:15:24;;;;;;;4.72;1.00;;;9.50;99.90;;;;;;4929643;29;20067;-77
2022/05/13 00:17:53;;;;;;;3.65;1.42;;;9.50;99.90;;;;;;4929875;29;20047;-78
2022/05/13 00:20:21;;;;;;;3.63;1.10;;;9.50;99.90;;;;;;4930470;29;20083;-80
2022/05/13 00:22:52;;;;;;;4.13;1.35;;;9.50;99.90;;;;;;4930550;29;20052;-77
2022/05/13 00:25:21;;;;;;;3.80;1.30;;;9.60;99.90;;;;;;4945408;29;20095;-77
2022/05/13 00:27:49;;;;;;;2.08;0.90;;;9.60;99.90;;;;;;4928777;29;20066;-78
2022/05/13 00:30:16;;;;;;;2.80;1.30;;;9.60;99.90;;;;;;4931298;29;20039;-79
2022/05/13 00:32:47;;;;;;;2.60;0.68;;;9.60;99.90;;;;;;4931440;29;20083;-77
2022/05/13 00:35:14;;;;;;;2.33;1.05;;;9.60;99.90;;;;;;4931043;29;20062;-77
2022/05/13 00:37:41;;;;;;;2.78;0.98;;;9.60;99.90;;;;;;4928851;29;20135;-77
2022/05/13 00:40:10;;;;;;;4.97;1.27;;;9.60;99.90;;;;;;4932036;29;20058;-77
2022/05/13 00:42:38;;;;;;;4.13;1.45;;;9.60;99.90;;;;;;4929959;29;20420;-77
2022/05/13 00:45:07;;;;;;;4.45;1.02;;;9.50;99.90;;;;;;4929202;29;20144;-77
2022/05/13 00:47:35;;;;;;;3.10;0.95;;;9.60;99.90;;;;;;4930654;29;20063;-77
2022/05/13 00:50:05;;;;;;;4.15;1.02;;;9.60;99.90;;;;;;4933711;29;20052;-77
2022/05/13 00:52:33;;;;;;;2.80;1.35;;;9.60;99.90;;;;;;4927657;29;20130;-77
2022/05/13 00:55:06;;;;;;;5.05;1.50;;;9.60;99.90;;;;;;4929391;29;20059;-76
2022/05/13 00:57:36;;;;;;;1.60;0.70;;;9.60;99.90;;;;;;4914009;29;20503;-77
2022/05/13 01:00:08;;;;;;;3.20;1.23;;;9.60;99.90;;;;;;4929264;29;20050;-76
2022/05/13 01:02:36;;;;;;;2.47;1.00;;;9.60;99.90;;;;;;4942004;28;20055;-77
2022/05/13 01:05:06;;;;;;;2.67;0.95;;;9.50;99.90;;;;;;4929311;29;20055;-77
2022/05/13 01:07:34;;;;;;;2.25;1.00;;;9.50;99.90;;;;;;4932970;29;20052;-77
2022/05/13 01:10:05;;;;;;;4.07;1.08;;;9.50;99.90;;;;;;4929999;29;20052;-77
2022/05/13 01:12:36;;;;;;;2.03;0.90;;;9.50;99.90;;;;;;4929911;29;20079;-77
2022/05/13 01:15:07;;;;;;;4.43;1.17;;;9.50;99.90;;;;;;4930514;29;20138;-77
2022/05/13 01:20:25;;;;;;;3.83;1.38;;;9.50;99.90;;;;;;4928647;29;20063;-78
2022/05/13 01:22:56;;;;;;;2.05;0.77;;;9.50;99.90;;;;;;4930442;29;20485;-77
2022/05/13 01:25:26;;;;;;;2.10;0.88;;;9.60;99.90;;;;;;4930718;29;20043;-77
2022/05/13 01:27:55;;;;;;;2.10;0.93;;;9.50;99.90;;;;;;4933499;29;20048;-78
2022/05/13 01:30:25;;;;;;;4.13;1.00;;;9.50;99.90;;;;;;4916507;29;20135;-79
2022/05/13 01:32:54;;;;;;;1.10;0.80;;;9.50;99.90;;;;;;4933241;29;20048;-78
2022/05/13 01:35:21;;;;;;;2.17;1.02;;;9.40;99.90;;;;;;4935813;29;20099;-78
2022/05/13 01:37:49;;;;;;;2.13;0.95;;;9.40;99.90;;;;;;4933402;29;20146;-80
2022/05/13 01:40:20;;;;;;;8.95;1.15;;;9.30;99.90;;;;;;4933692;29;20047;-77
2022/05/13 01:42:47;;;;;;;1.40;0.88;;;9.30;99.90;;;;;;4935698;29;20052;-77
2022/05/13 01:45:15;;;;;;;4.93;0.93;;;9.30;99.90;;;;;;4935634;29;20055;-78
2022/05/13 01:47:42;;;;;;;5.35;1.35;;;9.30;99.90;;;;;;4932783;29;20093;-78
2022/05/13 01:50:10;;;;;;;4.85;1.08;;;9.30;99.90;;;;;;4933275;29;20055;-78
2022/05/13 01:52:38;;;;;;;3.65;1.30;;;9.30;99.90;;;;;;4935925;29;20059;-78
2022/05/13 01:55:06;;;;;;;1.63;0.80;;;9.30;99.90;;;;;;4935989;29;20142;-77
2022/05/13 01:57:34;;;;;;;4.72;1.13;;;9.30;99.90;;;;;;4931861;29;20466;-77
2022/05/13 02:00:02;;;;;;;1.77;1.15;;;9.30;99.90;;;;;;4919060;29;20142;-77
2022/05/13 02:05:21;;;;;;;1.65;1.02;;;9.40;99.90;;;;;;4932465;29;20543;-78
2022/05/13 02:07:49;;;;;;;2.42;1.20;;;9.40;99.90;;;;;;4933312;29;20138;-77
2022/05/13 02:10:16;;;;;;;4.20;1.00;;;9.40;99.90;;;;;;4932784;29;20050;-77
2022/05/13 02:12:45;;;;;;;3.10;1.33;;;9.40;99.90;;;;;;4934389;29;20039;-77
2022/05/13 02:15:12;;;;;;;3.10;1.30;;;9.30;99.90;;;;;;4916734;29;20047;-78
2022/05/13 02:17:40;;;;;;;4.88;1.02;;;9.30;99.90;;;;;;4935065;29;20056;-77
2022/05/13 02:20:10;;;;;;;3.25;1.00;;;9.40;99.90;;;;;;4933621;29;20058;-77
2022/05/13 02:22:38;;;;;;;4.07;1.30;;;9.30;99.90;;;;;;4935078;29;20061;-76
2022/05/13 02:25:05;;;;;;;6.80;1.50;;;9.30;99.90;;;;;;4932978;29;20138;-76
2022/05/13 02:27:33;;;;;;;4.47;1.10;;;9.30;99.90;;;;;;4933470;29;20086;-76
2022/05/13 02:30:02;;;;;;;2.95;1.30;;;9.20;99.90;;;;;;4935432;29;20187;-78
2022/05/13 02:32:30;;;;;;;2.88;1.08;;;9.20;99.90;;;;;;4917879;29;20054;-77
2022/05/13 02:34:58;;;;;;;3.28;1.33;;;9.10;99.90;;;;;;4932983;29;20532;-77
2022/05/13 02:37:26;;;;;;;3.55;0.98;;;9.20;99.90;;;;;;4931112;29;20055;-77
2022/05/13 02:39:53;;;;;;;3.15;1.00;;;9.20;99.90;;;;;;4935254;29;20051;-77
2022/05/13 02:42:21;;;;;;;2.10;1.40;;;9.20;99.90;;;;;;4933519;29;20142;-78
2022/05/13 02:44:48;;;;;;;2.53;1.25;;;9.10;99.90;;;;;;4931734;29;20138;-77
2022/05/13 02:47:17;;;;;;;5.20;1.10;;;9.20;99.90;;;;;;4932391;29;20416;-76
2022/05/13 02:49:44;;;;;;;3.80;1.30;;;9.20;99.90;;;;;;4933975;29;20043;-76
2022/05/13 02:52:12;;;;;;;4.32;1.05;;;9.20;99.90;;;;;;4932752;29;20055;-75
2022/05/13 02:54:40;;;;;;;2.40;1.42;;;9.20;99.90;;;;;;4935002;29;20529;-74
2022/05/13 02:57:07;;;;;;;2.22;1.17;;;9.20;99.90;;;;;;4940522;28;20071;-75
2022/05/13 02:59:34;;;;;;;2.90;0.95;;;9.10;99.90;;;;;;4933418;29;20043;-75
2022/05/13 03:02:02;;;;;;;2.20;1.10;;;9.10;99.90;;;;;;4930422;29;20055;-74
2022/05/13 03:04:30;;;;;;;2.78;1.02;;;9.10;99.90;;;;;;4933202;29;20051;-74
2022/05/13 03:06:57;;;;;;;2.58;1.10;;;9.10;99.90;;;;;;4931820;29;20054;-74
2022/05/13 03:09:25;;;;;;;2.63;0.95;;;9.00;99.90;;;;;;4957611;28;20047;-74
2022/05/13 03:11:52;;;;;;;2.78;1.35;;;9.00;99.90;;;;;;4931859;28;20102;-74
2022/05/13 03:14:19;;;;;;;2.35;1.10;;;9.00;99.90;;;;;;4932807;29;20134;-75
2022/05/13 03:16:47;;;;;;;3.58;1.55;;;9.00;99.90;;;;;;4932466;29;20047;-75
2022/05/13 03:19:14;;;;;;;2.83;1.30;;;9.00;99.90;;;;;;4930899;29;20050;-74
2022/05/13 03:21:42;;;;;;;2.30;1.10;;;9.00;99.90;;;;;;4932590;29;20099;-76
2022/05/13 03:24:09;;;;;;;3.42;1.10;;;9.10;99.90;;;;;;4931938;29;20111;-74
2022/05/13 03:26:37;;;;;;;2.05;1.17;;;9.10;99.90;;;;;;4934070;29;20050;-74
2022/05/13 03:29:04;;;;;;;3.83;1.63;;;9.10;99.90;;;;;;4931845;29;20066;-76
2022/05/13 03:31:34;;;;;;;1.88;1.13;;;9.10;99.90;;;;;;4915494;29;20493;-76
2022/05/13 03:34:01;;;;;;;8.10;1.33;;;9.10;99.90;;;;;;4932648;29;20683;-74
2022/05/13 03:36:29;;;;;;;1.98;1.02;;;9.10;99.90;;;;;;4932744;29;20051;-75
2022/05/13 03:38:58;;;;;;;1.67;1.08;;;9.10;99.90;;;;;;4930538;29;20064;-75
2022/05/13 03:41:25;;;;;;;3.35;1.13;;;9.10;99.90;;;;;;4942501;28;20047;-75
2022/05/13 03:43:53;;;;;;;2.55;0.80;;;9.10;99.90;;;;;;4952903;28;20043;-77
2022/05/13 03:46:20;;;;;;;1.73;1.20;;;9.10;99.90;;;;;;4923268;29;20055;-76
2022/05/13 03:48:48;;;;;;;2.58;1.25;;;9.10;99.90;;;;;;4915437;29;20048;-76
2022/05/13 03:51:15;;;;;;;6.43;1.23;;;9.10;99.90;;;;;;4932749;29;20099;-75
2022/05/13 03:53:42;;;;;;;2.83;1.00;;;9.10;99.90;;;;;;4932071;29;20044;-74
2022/05/13 03:56:11;;;;;;;2.00;1.30;;;9.10;99.90;;;;;;4932596;29;20588;-77
2022/05/13 03:58:39;;;;;;;3.28;1.25;;;9.10;99.90;;;;;;4933761;29;20072;-77
2022/05/13 04:01:07;;;;;;;2.10;1.10;;;9.10;99.90;;;;;;4915126;29;20509;-77
2022/05/13 04:03:34;;;;;;;3.15;1.25;;;9.10;99.90;;;;;;4932033;29;20047;-78
2022/05/13 04:08:57;;;;;;;2.60;1.33;;;9.20;99.90;;;;;;4931313;29;20575;-77
2022/05/13 04:11:27;;;;;;;5.25;1.92;;;9.30;99.90;;;;;;4931230;29;20052;-77
2022/05/13 04:16:51;;;;;;;2.17;1.20;;;9.40;99.90;;;;;;4913674;29;20058;-77
2022/05/13 04:19:19;;;;;;;1.33;1.15;;;9.30;99.90;;;;;;4945743;28;20047;-77
2022/05/13 04:21:47;;;;;;;2.42;1.33;;;9.30;99.90;;;;;;4933131;29;20083;-77
2022/05/13 04:24:17;;;;;;;4.25;1.50;;;9.30;99.90;;;;;;4915407;29;20036;-81
2022/05/13 04:26:47;;;;;;;5.22;1.48;;;9.20;99.90;;;;;;4931314;29;20052;-78
2022/05/13 04:29:14;;;;;;;3.78;1.60;;;9.30;99.90;;;;;;4930748;29;20110;-76
2022/05/13 04:31:43;;;;;;;2.90;1.63;;;9.30;99.90;;;;;;4932160;29;20126;-75
2022/05/13 04:34:11;;;;;;;1.20;1.08;;;9.20;99.90;;;;;;4923151;29;20052;-78
2022/05/13 04:36:40;;;;;;;1.27;1.17;;;9.20;99.90;;;;;;4915915;29;20147;-77
2022/05/13 04:39:07;;;;;;;3.97;1.38;;;9.20;99.90;;;;;;4932597;29;20071;-76
2022/05/13 04:44:21;;;;;;;4.38;1.33;;;9.20;99.90;;;;;;4938864;29;20058;-76
2022/05/13 04:46:49;;;;;;;3.00;1.10;;;9.20;99.90;;;;;;4939956;29;20506;-76
2022/05/13 04:49:16;;;;;;;4.15;1.98;;;9.20;99.90;;;;;;4942957;29;20051;-77
2022/05/13 04:51:43;;;;;;;2.95;1.63;;;9.30;99.90;;;;;;4936535;29;20048;-77
2022/05/13 04:54:12;;;;;;;1.65;1.10;;;9.30;99.90;;;;;;4937570;29;20056;-77
2022/05/13 04:56:40;;;;;;;3.70;1.50;;;9.30;99.90;;;;;;4933489;28;20040;-77
2022/05/13 04:59:07;;;;;;;5.45;1.50;;;9.40;99.90;;;;;;4939867;29;20338;-77
2022/05/13 05:01:36;;;;;;;2.53;1.30;;;9.50;99.90;;;;;;4934673;29;20115;-78
2022/05/13 05:04:04;;;;;;;1.33;1.23;;;9.50;99.90;;;;;;4944072;29;20039;-76
2022/05/13 05:06:31;;;;;;;2.50;1.92;;;9.50;99.90;;;;;;4934675;29;20409;-77
2022/05/13 05:08:58;;;;;;;7.30;4.63;;;9.60;99.90;;;;;;4938158;29;20043;-77
2022/05/13 05:11:26;;;;;;;2.10;1.27;;;9.60;99.90;;;;;;4934174;29;20051;-75
2022/05/13 05:13:54;;;;;;;2.13;1.42;;;9.60;99.90;;;;;;4917025;29;20054;-76
2022/05/13 05:16:22;;;;;;;3.83;1.70;;;9.70;99.90;;;;;;4934904;29;20051;-75
2022/05/13 05:18:51;;;;;;;2.80;1.17;;;9.70;99.90;;;;;;4934326;29;20058;-75
2022/05/13 05:21:19;;;;;;;2.78;1.65;;;9.70;99.90;;;;;;4935124;29;20146;-75
2022/05/13 05:23:48;;;;;;;3.85;1.13;;;9.80;99.90;;;;;;4946973;29;20051;-80
2022/05/13 05:26:16;;;;;;;6.35;1.25;;;9.90;99.90;;;;;;4935184;29;20091;-76
2022/05/13 05:28:44;;;;;;;1.73;1.40;;;10.00;99.90;;;;;;4920716;29;20054;-78
2022/05/13 05:31:12;;;;;;;2.95;1.50;;;10.00;99.90;;;;;;4926517;29;20398;-78
2022/05/13 05:33:39;;;;;;;1.30;1.00;;;10.00;99.90;;;;;;4941865;28;20047;-78
2022/05/13 05:36:10;;;;;;;1.10;1.00;;;10.10;99.90;;;;;;4938876;29;20056;-75
2022/05/13 05:38:37;;;;;;;2.58;1.10;;;10.10;99.90;;;;;;4933326;29;20134;-75
2022/05/13 05:41:05;;;;;;;8.52;1.40;;;10.20;99.90;;;;;;4932858;29;20047;-75
2022/05/13 05:43:34;;;;;;;1.20;1.10;;;10.20;99.90;;;;;;4934092;29;20424;-78
2022/05/13 05:46:01;;;;;;;3.35;1.25;;;10.20;99.90;;;;;;4931840;29;20055;-79
2022/05/13 05:48:29;;;;;;;4.38;1.33;;;10.10;99.90;;;;;;4917860;29;20043;-79
2022/05/13 05:50:59;;;;;;;3.78;1.30;;;10.10;99.90;;;;;;4918758;29;20048;-74
2022/05/13 05:59:09;;;;;;;2.35;1.20;;;10.30;99.90;;;;;;4930482;29;20064;-77
2022/05/13 06:01:37;;;;;;;4.82;1.30;;;10.30;99.90;;;;;;4933657;29;20144;-78
2022/05/13 06:04:05;;;;;;;2.03;1.60;;;10.40;99.90;;;;;;4936149;29;20457;-77
2022/05/13 06:06:32;;;;;;;4.38;1.90;;;10.40;99.90;;;;;;4934040;29;20111;-77
2022/05/13 06:09:01;;;;;;;1.13;1.02;;;10.40;99.90;;;;;;4933888;29;20052;-75
2022/05/13 06:11:48;;;;;;;5.22;1.58;;;10.40;99.90;;;;;;4938905;28;20131;-76
2022/05/13 09:52:12;;;;;;;5.60;1.45;;;19.50;88.40;;;;;;4935295;29;20475;-78
2022/05/13 10:04:22;;;;;;;3.00;1.15;;;15.90;99.90;;;;;;5153662;23;20541;-86
2022/05/13 10:06:50;;;;;;;2.45;1.10;;;15.20;99.90;;;;;;4961325;28;20089;-84
2022/05/13 10:15:25;;;;;;;;;;;14.60;99.90;;;;;;4958001;28;20042;-88
2022/05/13 10:18:02;;;;;;;2.45;1.00;;;14.80;99.90;;;;;;4954642;28;19927;-88
2022/05/13 10:20:35;;;;;;;4.03;1.58;;;14.80;99.90;;;;;;4958609;28;20158;-90
2022/05/13 10:23:06;;;;;;;;;;;15.20;99.90;;;;;;4957039;28;20051;-89
2022/05/13 10:25:45;;;;;;;4.57;1.42;;;16.30;99.90;;;;;;4935224;29;19970;-88
2022/05/13 10:28:15;;;;;;;2.95;1.02;;;17.10;99.90;;;;;;4963848;29;20541;-87
2022/05/13 10:30:52;;;;;;;1.75;1.65;;;17.00;99.90;;;;;;4969381;28;20079;-88
2022/05/13 10:33:26;;;;;;;2.90;1.40;;;16.70;99.90;;;;;;4945390;28;20059;-81
2022/05/13 10:36:01;;;;;;;1.52;1.40;;;16.20;99.90;;;;;;4954651;28;20051;-82
2022/05/13 10:38:40;;;;;;;2.92;1.67;;;15.70;99.90;;;;;;4939170;28;20408;-82
2022/05/13 10:41:21;;;;;;;1.45;1.35;;;15.30;99.90;;;;;;4955308;29;20106;-81
2022/05/13 10:43:55;;;;;;;5.03;1.42;;;15.10;99.90;;;;;;4954916;28;20083;-79
2022/05/13 10:46:27;;;;;;;4.03;1.88;;;15.10;99.90;;;;;;4955785;28;20055;-83
2022/05/13 10:48:57;;;;;;;4.35;1.60;;;15.00;99.90;;;;;;4955877;28;20051;-83
2022/05/13 10:51:34;;;;;;;4.78;1.45;;;14.90;99.90;;;;;;4940991;29;20534;-82
2022/05/13 10:54:22;;;;;;;2.55;1.15;;;14.70;99.90;;;;;;4942403;29;20590;-82
2022/05/13 10:57:07;;;;;;;10.13;2.45;;;15.00;99.90;;;;;;4957147;28;20322;-82
2022/05/13 10:59:44;;;;;;;3.83;1.67;;;15.40;99.90;;;;;;4956462;28;20166;-80
2022/05/13 11:02:34;;;;;;;4.90;1.35;;;15.50;99.90;;;;;;4956000;28;20062;-80
2022/05/13 11:05:10;;;;;;;3.38;1.40;;;15.70;99.90;;;;;;4952822;28;20047;-81
2022/05/13 11:07:47;;;;;;;1.77;1.20;;;15.50;99.90;;;;;;4957676;28;20043;-84
2022/05/13 11:10:26;;;;;;;2.65;1.40;;;15.40;99.90;;;;;;4957549;28;20110;-84
2022/05/13 11:13:03;;;;;;;6.35;1.58;;;16.70;99.90;;;;;;4952572;28;20065;-84
2022/05/13 11:15:40;;;;;;;5.63;1.67;;;18.40;99.90;;;;;;4938243;29;20150;-82
2022/05/13 11:18:17;;;;;;;4.57;1.60;;;18.40;99.60;;;;;;4941884;29;20542;-84
2022/05/13 11:20:49;;;;;;;3.63;1.92;;;18.40;99.90;;;;;;4920470;29;20043;-83
2022/05/13 11:23:29;;;;;;;5.97;1.33;;;18.10;99.40;;;;;;4931458;29;20058;-86
2022/05/13 11:26:13;;;;;;;8.07;1.80;;;18.00;97.80;;;;;;4945925;29;20055;-86
2022/05/13 11:29:06;;;;;;;8.48;4.75;;;17.60;99.90;;;;;;4943816;29;20039;-87
2022/05/13 11:32:15;;;;;;;5.22;2.92;;;17.50;99.90;;;;;;4953200;29;20102;-84
2022/05/13 11:35:08;;;;;;;8.98;1.52;;;17.40;99.90;;;;;;4907661;29;20355;-89
2022/05/13 11:37:43;;;;;;;2.13;1.40;;;18.30;99.90;;;;;;4938071;29;20048;-85
2022/05/13 11:43:25;;;;;;;6.03;1.40;;;21.10;88.80;;;;;;5138954;23;20051;-88
2022/05/13 11:49:45;;;;;;;3.33;0.98;;;23.90;66.90;;;;;;5007883;23;20148;-89
2022/05/13 11:52:45;;;;;;;2.88;1.10;;;25.00;60.60;;;;;;4953632;29;20055;-78
2022/05/13 11:55:22;;;;;;;3.80;1.17;;;25.50;57.80;;;;;;4947480;29;20044;-87
2022/05/13 11:57:51;;;;;;;4.70;1.20;;;25.70;57.40;;;;;;4945752;29;20055;-81
2022/05/13 12:00:23;;;;;;;3.15;1.13;;;25.90;56.70;;;;;;4949662;28;20029;-87
2022/05/13 12:03:04;;;;;;;7.20;1.20;;;26.40;55.50;;;;;;4949790;29;20059;-86
2022/05/13 12:05:38;;;;;;;6.28;1.35;;;26.50;54.40;;;;;;4952258;28;20146;-84
2022/05/13 12:08:18;;;;;;;4.47;3.35;;;26.80;53.40;;;;;;4953978;29;20447;-80
2022/05/13 12:11:18;;;;;;;14.75;2.38;;;26.70;53.10;;;;;;4951055;28;20149;-83
2022/05/13 12:14:06;;;;;;;6.05;1.67;;;26.70;52.70;;;;;;4950790;29;20407;-80
2022/05/13 12:16:44;;;;;;;2.25;1.23;;;26.90;52.30;;;;;;4953039;29;20047;-82
2022/05/13 12:19:41;;;;;;;3.90;1.42;;;27.00;52.70;;;;;;4954149;29;20662;-79
2022/05/13 12:22:20;;;;;;;5.85;1.40;;;27.20;51.20;;;;;;4954896;28;20051;-83
2022/05/13 12:25:01;;;;;;;3.13;0.90;;;27.20;50.50;;;;;;4949879;29;20082;-83
2022/05/13 12:27:44;;;;;;;2.58;1.13;;;27.20;50.30;;;;;;4953947;28;20062;-82
2022/05/13 12:30:30;;;;;;;4.97;1.35;;;27.30;50.10;;;;;;4951914;29;20055;-79
2022/05/13 12:33:19;;;;;;;2.88;1.10;;;27.50;50.30;;;;;;4950683;29;20605;-79
2022/05/13 12:39:10;;;;;;;2.25;1.00;;;28.40;48.10;;;;;;4950583;28;20054;-80
2022/05/13 12:41:52;;;;;;;2.38;0.65;;;27.70;48.90;;;;;;4950272;28;20518;-79
2022/05/13 12:44:30;;;;;;;6.43;1.52;;;27.50;48.70;;;;;;4953132;28;20130;-87
2022/05/13 12:47:23;;;;;;;2.75;0.98;;;27.60;48.80;;;;;;4954703;28;20150;-83
2022/05/13 12:50:02;;;;;;;5.05;0.88;;;27.90;48.20;;;;;;4952534;28;20055;-86
2022/05/13 12:52:44;;;;;;;3.13;0.82;;;28.20;48.30;;;;;;4955522;28;20046;-82
2022/05/13 12:55:19;;;;;;;4.40;0.90;;;28.70;47.10;;;;;;4951936;29;20043;-83
2022/05/13 12:57:50;;;;;;;3.50;0.73;;;29.00;46.60;;;;;;4950570;28;20051;-81
2022/05/13 13:00:20;;;;;;;2.65;0.73;;;28.90;46.40;;;;;;4953338;28;20047;-84
2022/05/13 13:02:57;;;;;;;5.28;1.02;;;28.80;45.60;;;;;;4958728;28;20106;-87
2022/05/13 13:05:32;;;;;;;3.45;1.45;;;28.90;45.50;;;;;;4961830;28;20158;-87
2022/05/13 13:08:07;;;;;;;5.47;0.95;;;29.00;45.70;;;;;;4963567;28;20079;-87
2022/05/13 13:10:35;;;;;;;5.50;1.52;;;28.90;45.40;;;;;;4965924;28;20059;-89
2022/05/13 13:13:12;;;;;;;5.80;0.88;;;28.90;45.10;;;;;;4968555;28;20094;-84
2022/05/13 13:15:48;;;;;;;2.97;0.85;;;28.80;45.40;;;;;;4961903;28;20491;-87
2022/05/13 13:18:18;;;;;;;3.40;0.73;;;28.80;45.00;;;;;;4961770;28;20046;-87
2022/05/13 13:20:50;;;;;;;3.25;0.70;;;29.00;44.50;;;;;;4959440;29;20048;-83
2022/05/13 13:23:20;;;;;;;5.50;1.00;;;28.60;44.90;;;;;;4958122;28;20050;-90
2022/05/13 13:25:51;;;;;;;5.38;0.90;;;28.30;45.40;;;;;;4964337;29;20039;-82
2022/05/13 13:28:25;;;;;;;2.03;0.98;;;28.10;46.60;;;;;;4955879;28;20067;-77
2022/05/13 13:30:57;;;;;;;6.50;0.70;;;28.40;45.30;;;;;;4956240;28;20069;-84
2022/05/13 13:33:30;;;;;;;1.88;0.68;;;28.30;45.00;;;;;;4956924;28;20057;-85
2022/05/13 13:36:08;;;;;;;2.40;0.70;;;28.20;44.90;;;;;;4938259;29;20098;-81
2022/05/13 13:38:39;;;;;;;4.00;1.00;;;27.70;45.00;;;;;;4962854;28;20040;-85
2022/05/13 13:41:06;;;;;;;3.85;0.80;;;27.40;45.60;;;;;;4962506;29;20059;-79
2022/05/13 13:43:37;;;;;;;3.90;0.75;;;27.40;46.00;;;;;;4958147;28;20053;-87
2022/05/13 13:46:09;;;;;;;4.38;1.02;;;27.50;45.30;;;;;;4961613;28;20087;-89
2022/05/13 13:48:43;;;;;;;12.32;1.30;;;27.20;45.60;;;;;;4960870;28;20047;-84
2022/05/13 13:51:17;;;;;;;5.07;0.80;;;27.00;45.60;;;;;;4959461;28;20463;-86
2022/05/13 13:53:53;;;;;;;6.63;0.98;;;26.80;46.20;;;;;;4957036;28;20082;-83
2022/05/13 13:56:21;;;;;;;4.97;2.20;;;27.00;45.80;;;;;;4958677;29;20119;-84
2022/05/13 13:59:12;;;;;;;3.35;1.25;;;26.60;46.20;;;;;;4956628;28;20055;-82
2022/05/13 14:01:49;;;;;;;6.32;0.70;;;26.40;46.80;;;;;;4956248;29;20086;-83
2022/05/13 14:04:20;;;;;;;4.78;1.13;;;26.20;46.90;;;;;;4961428;28;20110;-81
2022/05/13 14:06:49;;;;;;;4.32;1.88;;;26.10;47.40;;;;;;4958387;29;20085;-85
2022/05/13 14:09:22;;;;;;;4.55;3.13;;;25.80;47.80;;;;;;4958183;28;20138;-82
2022/05/13 14:11:51;;;;;;;3.13;1.00;;;25.30;48.50;;;;;;4956296;29;20071;-82
2022/05/13 14:14:19;;;;;;;6.20;1.80;;;25.30;49.00;;;;;;4953749;28;20137;-84
2022/05/13 14:16:52;;;;;;;5.88;1.35;;;25.10;49.00;;;;;;4958174;28;20491;-82
2022/05/13 14:19:23;;;;;;;3.58;1.75;;;25.00;50.00;;;;;;4957411;28;20051;-83
2022/05/13 14:21:56;;;;;;;7.10;1.00;;;24.40;50.00;;;;;;4969241;29;20048;-80
2022/05/13 14:24:34;;;;;;;8.65;1.30;;;22.80;52.70;;;;;;4972101;28;20110;-84
2022/05/13 14:27:09;;;;;;;2.90;0.75;;;21.30;55.30;;;;;;4957135;29;20058;-82
2022/05/13 14:29:37;;;;;;;6.50;0.80;;;20.10;57.90;;;;;;4956542;28;20430;-85
2022/05/13 14:32:07;;;;;;;3.33;0.57;;;19.40;60.80;;;;;;4960861;28;20330;-86
2022/05/13 14:34:35;;;;;;;6.95;1.00;;;19.00;61.90;;;;;;4954259;28;20365;-83
2022/05/13 14:37:06;;;;;;;2.58;0.52;;;18.30;63.10;;;;;;4953038;29;20058;-82
2022/05/13 14:39:52;;;;;;;2.63;0.70;;;17.70;65.00;;;;;;4952385;28;20038;-81
2022/05/13 14:42:25;;;;;;;1.38;0.90;;;17.30;66.20;;;;;;4945788;29;20059;-84
2022/05/13 14:44:55;;;;;;;5.47;1.08;;;17.20;68.10;;;;;;4959938;28;20094;-84
2022/05/13 14:47:35;;;;;;;2.45;0.70;;;17.10;68.40;;;;;;4960954;28;20051;-84
2022/05/13 14:50:19;;;;;;;2.45;1.00;;;16.90;69.20;;;;;;4932858;29;20055;-83
2022/05/13 14:52:50;;;;;;;5.65;1.42;;;16.60;69.70;;;;;;4943161;28;20052;-84
2022/05/13 14:55:28;;;;;;;2.72;0.77;;;16.30;70.70;;;;;;4959683;28;20047;-84
2022/05/13 14:57:57;;;;;;;1.33;0.70;;;16.10;71.90;;;;;;4955974;28;20051;-82
2022/05/13 15:00:29;;;;;;;5.88;0.82;;;15.90;72.90;;;;;;4957903;28;20061;-85
2022/05/13 15:03:05;;;;;;;2.83;0.75;;;15.80;73.50;;;;;;4959503;28;20114;-85
2022/05/13 15:05:41;;;;;;;3.35;0.93;;;15.80;74.20;;;;;;4968582;28;20047;-87
2022/05/13 15:08:44;;;;;;;4.25;0.73;;;15.80;74.40;;;;;;4960477;28;20071;-78
2022/05/13 15:11:16;;;;;;;10.75;1.27;;;15.70;75.00;;;;;;4950496;28;20496;-77
2022/05/13 15:13:44;;;;;;;3.00;1.00;;;15.80;75.60;;;;;;4953527;28;20137;-79
2022/05/13 15:16:16;;;;;;;1.55;0.60;;;15.70;76.60;;;;;;4945446;28;20055;-80
2022/05/13 15:18:44;;;;;;;1.48;1.00;;;15.60;78.60;;;;;;4936373;29;20054;-78
2022/05/13 15:21:13;;;;;;;2.28;1.50;;;15.60;80.60;;;;;;4958174;29;20053;-78
2022/05/13 15:23:40;;;;;;;3.33;1.30;;;15.50;81.80;;;;;;4951781;28;20055;-78
2022/05/13 15:26:09;;;;;;;2.25;1.13;;;15.40;84.90;;;;;;4950062;28;20242;-78
2022/05/13 15:28:37;;;;;;;13.02;4.88;;;15.20;88.50;;;;;;4952445;28;20055;-78
2022/05/13 15:31:05;;;;;;;10.05;1.00;;;15.10;92.30;;;;;;4952405;29;20114;-78
2022/05/13 15:33:32;;;;;;;2.10;0.75;;;15.10;93.00;;;;;;4950434;28;20057;-78
2022/05/13 15:36:00;;;;;;;4.25;1.08;;;15.00;94.50;;;;;;4949426;28;20104;-79
2022/05/13 15:38:27;;;;;;;8.25;1.50;;;14.90;95.80;;;;;;4951200;28;20106;-77
2022/05/13 15:40:55;;;;;;;3.00;1.23;;;14.80;98.30;;;;;;4953879;28;20345;-80
2022/05/13 15:43:22;;;;;;;3.05;1.40;;;14.70;97.70;;;;;;4948999;29;20047;-78
2022/05/13 15:45:54;;;;;;;4.15;1.00;;;14.70;99.30;;;;;;4949538;28;20047;-77
2022/05/13 15:48:26;;;;;;;3.20;1.58;;;14.50;99.90;;;;;;4941399;28;20079;-79
2022/05/13 15:53:42;;;;;;;4.40;1.75;;;14.30;99.90;;;;;;4947415;28;20043;-80
2022/05/13 15:56:22;;;;;;;3.70;1.75;;;14.20;99.90;;;;;;4949294;29;20467;-79
2022/05/13 15:58:49;;;;;;;4.22;0.82;;;14.00;99.90;;;;;;4953463;28;20074;-81
2022/05/13 16:01:18;;;;;;;2.53;0.75;;;13.80;99.90;;;;;;4953327;28;20111;-80
2022/05/13 16:03:45;;;;;;;2.45;0.73;;;13.70;99.90;;;;;;4954112;28;20047;-79
2022/05/13 16:06:13;;;;;;;6.10;2.67;;;13.50;99.90;;;;;;4953713;28;20518;-78
2022/05/13 16:08:40;;;;;;;4.05;1.23;;;13.50;99.90;;;;;;4935392;29;20573;-78
2022/05/13 16:11:09;;;;;;;3.05;1.00;;;13.40;99.90;;;;;;4952765;28;20051;-79
2022/05/13 16:13:40;;;;;;;1.75;0.82;;;13.30;99.90;;;;;;4958607;28;20054;-80
2022/05/13 16:16:14;;;;;;;1.88;0.90;;;13.30;99.90;;;;;;4965806;28;20093;-80
2022/05/13 16:18:45;;;;;;;2.53;0.80;;;13.30;99.90;;;;;;4957979;28;20087;-82
2022/05/13 16:21:18;;;;;;;3.08;1.35;;;13.20;99.90;;;;;;4951228;28;20427;-79
2022/05/13 16:23:52;;;;;;;;;;;13.30;99.90;;;;;;4958459;28;20059;-81
2022/05/13 16:26:23;;;;;;;6.45;0.95;;;13.20;99.90;;;;;;4962634;28;20000;-82
2022/05/13 16:28:50;;;;;;;3.97;1.25;;;13.20;99.90;;;;;;4951225;28;20047;-80
2022/05/13 16:31:18;;;;;;;2.50;1.02;;;13.30;99.90;;;;;;4952646;28;20051;-80
2022/05/13 16:33:47;;;;;;;3.22;0.80;;;13.20;99.90;;;;;;4950654;28;20039;-82
2022/05/13 16:36:17;;;;;;;5.07;1.08;;;13.10;99.90;;;;;;4964246;28;20048;-84
2022/05/13 16:38:48;;;;;;;3.00;1.40;;;13.00;99.90;;;;;;4944290;28;20431;-82
2022/05/13 16:41:16;;;;;;;2.97;1.95;;;13.00;99.90;;;;;;4966401;28;20058;-79
2022/05/13 16:43:45;;;;;;;4.95;1.15;;;12.90;99.90;;;;;;4944148;28;20137;-82
2022/05/13 16:46:21;;;;;;;5.63;1.63;;;12.90;99.90;;;;;;4953097;28;20282;-78
2022/05/13 16:48:52;;;;;;;5.97;0.80;;;12.80;99.90;;;;;;4947414;28;20127;-81
2022/05/13 16:51:24;;;;;;;7.32;1.05;;;12.80;99.90;;;;;;4951263;28;20055;-79
2022/05/13 16:53:52;;;;;;;4.15;0.90;;;12.70;99.90;;;;;;4966333;28;20427;-86
2022/05/13 16:56:20;;;;;;;4.82;1.02;;;12.60;99.90;;;;;;4959940;28;20146;-84
2022/05/13 16:58:49;;;;;;;5.40;1.30;;;12.50;99.90;;;;;;4953029;28;20507;-81
2022/05/13 17:01:18;;;;;;;2.47;0.80;;;12.50;99.90;;;;;;4957688;28;20504;-82
2022/05/13 17:03:55;;;;;;;4.68;0.82;;;12.40;99.90;;;;;;4962760;28;20074;-85
2022/05/13 17:06:26;;;;;;;5.40;1.38;;;12.40;99.90;;;;;;4966563;29;20051;-85
2022/05/13 17:17:21;;;;;;;4.38;2.45;;;12.10;99.90;;;;;;4960259;28;20498;-85
2022/05/13 17:19:56;;;;;;;1.53;0.53;;;12.10;99.90;;;;;;4944004;29;20107;-84
2022/05/13 17:22:25;;;;;;;2.47;0.60;;;12.00;99.90;;;;;;5001375;23;20052;-88
2022/05/13 17:24:55;;;;;;;2.65;0.60;;;12.00;99.90;;;;;;4974784;28;20054;-88
2022/05/13 17:27:36;;;;;;;4.60;0.60;;;12.00;99.90;;;;;;5006874;23;20051;-86
2022/05/13 17:30:13;;;;;;;5.00;1.23;;;12.00;99.90;;;;;;4959990;28;20048;-86
2022/05/13 17:32:43;;;;;;;4.13;1.23;;;12.00;99.90;;;;;;4959837;28;20040;-82
2022/05/13 17:35:17;;;;;;;3.75;1.05;;;12.10;99.90;;;;;;4944311;29;20056;-86
2022/05/13 17:37:52;;;;;;;5.82;1.70;;;12.10;99.90;;;;;;4952945;29;20056;-83
2022/05/13 17:40:30;;;;;;;2.95;1.13;;;12.10;99.90;;;;;;4964286;28;20036;-87
2022/05/13 17:43:00;;;;;;;3.22;1.13;;;12.10;99.90;;;;;;4926070;29;20052;-80
2022/05/13 17:45:28;;;;;;;1.25;0.77;;;12.10;99.90;;;;;;4938083;29;20079;-78
2022/05/13 17:47:55;;;;;;;4.20;0.80;;;12.10;99.90;;;;;;4938006;29;20556;-79